Terminal Aerodrome Forecast
Issued by NWS

Home | Current Version | Previous Version | Text Only | Print | Product List | Glossary On
Versions: 1 2 3 4 5 6 7 8 9 10 11 12 13
824
FTUS46 KSEW 210530
TAFCLM
TAF
KCLM 210530Z 2106/2206 27005KT P6SM SCT023
     FM210900 27005KT P6SM OVC015
     FM211600 28004KT P6SM FEW020 BKN150
     FM212200 34005KT P6SM OVC100=

USA.gov is the U.S. government's official web portal to all federal, state and local government web resources and services.